createdAt,value
2022-09-21T00:01:31.294Z,15.43
2022-09-21T00:04:08.817Z,15.43
2022-09-21T00:06:37.426Z,15.43
2022-09-21T00:09:05.353Z,15.44
2022-09-21T00:11:35.568Z,15.43
2022-09-21T00:14:08.126Z,15.43
2022-09-21T00:16:36.292Z,15.42
2022-09-21T00:19:04.882Z,15.40
2022-09-21T00:21:32.678Z,15.41
2022-09-21T00:24:02.640Z,15.42
2022-09-21T00:26:31.264Z,15.41
2022-09-21T00:29:00.843Z,15.40
2022-09-21T00:31:31.182Z,15.41
2022-09-21T00:34:00.342Z,15.41
2022-09-21T00:36:28.561Z,15.40
2022-09-21T00:39:01.084Z,15.38
2022-09-21T00:41:31.034Z,15.35
2022-09-21T00:44:25.548Z,15.29
2022-09-21T00:46:56.838Z,15.25
2022-09-21T00:49:29.292Z,15.24
2022-09-21T00:52:02.188Z,15.18
2022-09-21T00:54:37.236Z,15.17
2022-09-21T00:57:05.484Z,15.13
2022-09-21T00:59:36.084Z,15.12
2022-09-21T01:02:03.745Z,15.13
2022-09-21T01:04:31.792Z,15.12
2022-09-21T01:07:05.733Z,15.14
2022-09-21T01:09:34.324Z,15.15
2022-09-21T01:12:39.413Z,15.17
2022-09-21T01:15:31.968Z,15.22
2022-09-21T01:18:10.331Z,15.27
2022-09-21T01:20:59.657Z,15.30
2022-09-21T01:23:40.218Z,15.32
2022-09-21T01:26:26.700Z,15.34
2022-09-21T01:28:54.266Z,15.37
2022-09-21T01:31:26.637Z,15.40
2022-09-21T01:34:02.449Z,15.41
2022-09-21T01:36:31.882Z,15.45
2022-09-21T01:39:05.717Z,15.47
2022-09-21T01:41:35.641Z,15.44
2022-09-21T01:44:13.951Z,15.43
2022-09-21T01:46:42.695Z,15.43
2022-09-21T01:49:16.120Z,15.39
2022-09-21T01:51:57.443Z,15.36
2022-09-21T01:54:33.297Z,15.28
2022-09-21T01:57:11.065Z,15.20
2022-09-21T02:00:01.697Z,15.16
2022-09-21T02:02:51.675Z,15.09
2022-09-21T02:05:22.661Z,15.03
2022-09-21T02:07:52.584Z,14.98
2022-09-21T02:10:30.321Z,14.92
2022-09-21T02:13:01.305Z,14.86
2022-09-21T02:15:45.305Z,14.81
2022-09-21T02:18:32.547Z,14.78
2022-09-21T02:21:04.173Z,14.76
2022-09-21T02:23:43.747Z,14.73
2022-09-21T02:26:20.390Z,14.71
2022-09-21T02:28:56.147Z,14.68
2022-09-21T02:31:47.014Z,14.67
2022-09-21T02:34:26.555Z,14.69
2022-09-21T02:37:10.847Z,14.68
2022-09-21T02:39:44.929Z,14.69
2022-09-21T02:42:22.197Z,14.66
2022-09-21T02:45:07.521Z,14.67
2022-09-21T02:47:59.544Z,14.66
2022-09-21T02:50:33.724Z,14.66
2022-09-21T02:53:04.595Z,14.68
2022-09-21T02:55:33.936Z,14.68
2022-09-21T02:58:08.019Z,14.69
2022-09-21T03:00:37.184Z,14.67
2022-09-21T03:03:23.331Z,14.66
2022-09-21T03:05:54.073Z,14.67
2022-09-21T03:08:22.527Z,14.64
2022-09-21T03:10:50.902Z,14.63
2022-09-21T03:13:19.037Z,14.61
2022-09-21T03:15:47.390Z,14.60
2022-09-21T03:18:15.185Z,14.62
2022-09-21T03:20:46.236Z,14.63
2022-09-21T03:23:14.942Z,14.62
2022-09-21T03:25:46.277Z,14.61
2022-09-21T03:28:15.588Z,14.60
2022-09-21T03:30:43.441Z,14.61
2022-09-21T03:33:12.941Z,14.59
2022-09-21T03:35:41.028Z,14.55
2022-09-21T03:38:08.988Z,14.54
2022-09-21T03:40:36.593Z,14.51
2022-09-21T03:43:04.504Z,14.48
2022-09-21T03:45:32.035Z,14.45
2022-09-21T03:48:00.584Z,14.43
2022-09-21T03:50:30.235Z,14.42
2022-09-21T03:52:58.220Z,14.41
2022-09-21T03:55:26.587Z,14.38
2022-09-21T03:57:54.168Z,14.33
2022-09-21T04:00:21.921Z,14.27
2022-09-21T04:02:49.507Z,14.20
2022-09-21T04:05:17.820Z,14.14
2022-09-21T04:07:45.947Z,14.06
2022-09-21T04:10:17.694Z,14.00
2022-09-21T04:12:46.752Z,13.96
2022-09-21T04:15:19.718Z,13.90
2022-09-21T04:17:51.590Z,13.86
2022-09-21T04:20:22.643Z,13.85
2022-09-21T04:22:51.601Z,13.80
2022-09-21T04:25:19.460Z,13.77
2022-09-21T04:27:47.344Z,13.75
2022-09-21T04:30:16.498Z,13.70
2022-09-21T04:32:44.622Z,13.66
2022-09-21T04:35:12.222Z,13.61
2022-09-21T04:37:39.763Z,13.62
2022-09-21T04:40:08.152Z,13.58
2022-09-21T04:42:35.842Z,13.53
2022-09-21T04:45:04.086Z,13.49
2022-09-21T04:47:31.904Z,13.47
2022-09-21T04:49:59.458Z,13.48
2022-09-21T04:52:26.986Z,13.44
2022-09-21T04:54:54.699Z,13.36
2022-09-21T04:57:22.252Z,13.29
2022-09-21T04:59:49.695Z,13.26
2022-09-21T05:02:17.401Z,13.22
2022-09-21T05:04:50.081Z,13.18
2022-09-21T05:07:18.482Z,13.17
2022-09-21T05:10:04.107Z,13.17
2022-09-21T05:12:34.141Z,13.16
2022-09-21T05:15:02.446Z,13.14
2022-09-21T05:17:30.404Z,13.10
2022-09-21T05:19:58.005Z,13.06
2022-09-21T05:22:25.545Z,13.01
2022-09-21T05:24:53.151Z,12.98
2022-09-21T05:27:20.624Z,12.93
2022-09-21T05:29:48.466Z,12.87
2022-09-21T05:32:16.396Z,12.83
2022-09-21T05:34:53.570Z,12.78
2022-09-21T05:37:38.948Z,12.74
2022-09-21T05:40:07.493Z,12.75
2022-09-21T05:42:35.335Z,12.74
2022-09-21T05:45:03.740Z,12.73
2022-09-21T05:48:04.401Z,12.71
2022-09-21T05:50:40.930Z,12.68
2022-09-21T05:53:17.329Z,12.66
2022-09-21T05:56:03.177Z,12.63
2022-09-21T05:58:50.096Z,12.61
2022-09-21T06:01:35.304Z,12.60
2022-09-21T06:04:03.801Z,12.60
2022-09-21T06:06:31.252Z,12.60
2022-09-21T06:08:58.876Z,12.61
2022-09-21T06:11:26.315Z,12.62
2022-09-21T06:13:54.045Z,12.69
2022-09-21T06:16:21.672Z,12.74
2022-09-21T06:18:49.255Z,12.80
2022-09-21T06:21:16.842Z,12.83
2022-09-21T06:23:44.345Z,12.85
2022-09-21T06:26:11.856Z,12.85
2022-09-21T06:28:39.371Z,12.84
2022-09-21T06:31:06.894Z,12.89
2022-09-21T06:33:35.827Z,12.93
2022-09-21T06:36:03.699Z,12.97
2022-09-21T06:38:32.302Z,12.99
2022-09-21T06:41:04.560Z,13.05
2022-09-21T06:43:32.648Z,13.10
2022-09-21T06:46:01.960Z,13.16
2022-09-21T06:48:30.798Z,13.22
2022-09-21T06:51:02.846Z,13.31
2022-09-21T06:53:32.544Z,13.42
2022-09-21T06:56:02.099Z,13.45
2022-09-21T06:58:31.396Z,13.53
2022-09-21T07:00:59.190Z,13.61
2022-09-21T07:03:26.861Z,13.72
2022-09-21T07:05:54.351Z,13.82
2022-09-21T07:11:11.042Z,13.98
2022-09-21T07:13:38.881Z,14.02
2022-09-21T07:16:09.359Z,14.08
2022-09-21T07:18:43.663Z,14.13
2022-09-21T07:21:12.185Z,14.19
2022-09-21T07:23:39.798Z,14.26
2022-09-21T07:26:13.559Z,14.31
2022-09-21T07:28:41.988Z,14.39
2022-09-21T07:31:15.654Z,14.53
2022-09-21T07:33:47.191Z,14.66
2022-09-21T07:36:14.778Z,14.76
2022-09-21T07:38:44.848Z,14.86
2022-09-21T07:41:14.763Z,14.96
2022-09-21T07:43:42.404Z,15.10
2022-09-21T07:46:12.294Z,15.19
2022-09-21T07:48:40.408Z,15.23
2022-09-21T07:51:11.230Z,15.27
2022-09-21T07:53:41.042Z,15.35
2022-09-21T07:56:14.370Z,15.41
2022-09-21T07:59:01.422Z,15.50
2022-09-21T08:01:29.511Z,15.69
2022-09-21T08:03:58.669Z,16.04
2022-09-21T08:06:28.067Z,16.29
2022-09-21T08:08:58.044Z,16.39
2022-09-21T08:11:27.821Z,16.47
2022-09-21T08:13:58.057Z,16.47
2022-09-21T08:16:29.231Z,16.48
2022-09-21T08:18:57.295Z,16.47
2022-09-21T08:21:24.834Z,16.50
2022-09-21T08:23:52.534Z,16.53
2022-09-21T08:26:20.677Z,16.57
2022-09-21T08:28:53.469Z,16.68
2022-09-21T08:31:24.344Z,16.80
2022-09-21T08:33:53.132Z,16.96
2022-09-21T08:36:21.055Z,17.15
2022-09-21T08:38:48.596Z,17.34
2022-09-21T08:41:20.734Z,17.49
2022-09-21T08:43:52.886Z,17.63
2022-09-21T08:46:27.539Z,17.78
2022-09-21T08:48:58.578Z,17.96
2022-09-21T08:51:33.119Z,18.12
2022-09-21T08:54:07.361Z,18.38
2022-09-21T08:56:53.719Z,18.66
2022-09-21T08:59:24.557Z,18.86
2022-09-21T09:02:00.493Z,19.00
2022-09-21T09:04:33.956Z,19.25
2022-09-21T09:07:21.468Z,19.44
2022-09-21T09:10:14.666Z,19.56
2022-09-21T09:13:13.055Z,20.07
2022-09-21T09:15:52.423Z,21.04
2022-09-21T09:18:26.087Z,21.93
2022-09-21T09:21:28.929Z,22.73
2022-09-21T09:24:02.719Z,23.58
2022-09-21T09:26:49.128Z,23.76
2022-09-21T09:29:34.089Z,23.89
2022-09-21T09:32:02.394Z,23.77
2022-09-21T09:34:34.359Z,23.97
2022-09-21T09:37:12.065Z,24.01
2022-09-21T09:39:42.407Z,24.70
2022-09-21T09:42:22.270Z,24.83
2022-09-21T09:45:19.241Z,24.44
2022-09-21T09:48:10.024Z,23.82
2022-09-21T09:50:42.843Z,23.46
2022-09-21T09:53:20.839Z,23.16
2022-09-21T09:55:56.909Z,22.79
2022-09-21T09:58:46.536Z,22.42
2022-09-21T10:01:43.846Z,22.30
2022-09-21T10:04:17.620Z,22.32
2022-09-21T10:06:46.949Z,22.31
2022-09-21T10:09:23.517Z,22.29
2022-09-21T10:11:55.262Z,22.37
2022-09-21T10:14:25.769Z,22.33
2022-09-21T10:16:55.902Z,22.40
2022-09-21T10:19:27.511Z,22.40
2022-09-21T10:21:58.500Z,22.42
2022-09-21T10:24:37.459Z,22.22
2022-09-21T10:27:11.887Z,22.20
2022-09-21T10:29:49.622Z,21.99
2022-09-21T10:32:24.736Z,21.92
2022-09-21T10:35:12.859Z,22.04
2022-09-21T10:37:42.715Z,22.31
2022-09-21T10:40:19.514Z,22.28
2022-09-21T10:42:50.594Z,22.07
2022-09-21T10:45:20.488Z,21.98
2022-09-21T10:48:06.909Z,21.66
2022-09-21T10:50:42.819Z,21.34
2022-09-21T10:53:10.400Z,21.12
2022-09-21T10:55:52.707Z,21.02
2022-09-21T10:58:30.217Z,20.92
2022-09-21T11:01:13.504Z,20.84
2022-09-21T11:03:47.345Z,20.75
2022-09-21T11:06:31.796Z,20.56
2022-09-21T11:09:09.735Z,20.42
2022-09-21T11:12:01.756Z,20.50
2022-09-21T11:14:50.363Z,20.93
2022-09-21T11:17:30.573Z,21.19
2022-09-21T11:20:20.900Z,21.76
2022-09-21T11:23:22.787Z,22.34
2022-09-21T11:26:00.961Z,23.36
2022-09-21T11:28:37.079Z,24.18
2022-09-21T11:31:16.518Z,24.83
2022-09-21T11:33:51.759Z,25.16
2022-09-21T11:36:38.382Z,26.03
2022-09-21T11:39:31.199Z,26.14
2022-09-21T11:42:23.974Z,25.37
2022-09-21T11:44:58.365Z,24.62
2022-09-21T11:47:44.021Z,24.49
2022-09-21T11:50:44.550Z,24.95
2022-09-21T11:53:34.334Z,24.90
2022-09-21T11:56:01.910Z,24.49
2022-09-21T11:58:39.809Z,23.95
2022-09-21T12:01:28.769Z,23.67
2022-09-21T12:04:24.228Z,23.23
2022-09-21T12:07:21.052Z,22.85
2022-09-21T12:10:07.497Z,22.84
2022-09-21T12:13:05.027Z,22.57
2022-09-21T12:15:43.731Z,22.47
2022-09-21T12:18:25.902Z,22.66
2022-09-21T12:21:01.797Z,22.80
2022-09-21T12:23:47.896Z,22.76
2022-09-21T12:26:20.776Z,22.72
2022-09-21T12:28:54.926Z,22.36
2022-09-21T12:32:15.396Z,22.01
2022-09-21T12:34:49.369Z,21.78
2022-09-21T12:37:32.019Z,21.75
2022-09-21T12:40:37.576Z,21.85
2022-09-21T12:43:34.469Z,21.73
2022-09-21T12:46:08.100Z,21.82
2022-09-21T12:48:39.067Z,22.13
2022-09-21T12:51:30.303Z,22.62
2022-09-21T12:54:02.168Z,22.65
2022-09-21T12:56:50.182Z,22.45
2022-09-21T12:59:24.592Z,22.81
2022-09-21T13:02:13.097Z,23.30
2022-09-21T13:04:46.437Z,23.13
2022-09-21T13:07:25.767Z,22.71
2022-09-21T13:09:53.620Z,22.83
2022-09-21T13:12:26.121Z,22.93
2022-09-21T13:15:03.094Z,23.03
2022-09-21T13:17:32.870Z,22.90
2022-09-21T13:20:06.805Z,23.24
2022-09-21T13:22:37.554Z,23.57
2022-09-21T13:25:18.489Z,23.82
2022-09-21T13:28:17.249Z,23.53
2022-09-21T13:30:47.498Z,23.06
2022-09-21T13:33:18.109Z,22.71
2022-09-21T13:35:48.352Z,22.50
2022-09-21T13:38:54.457Z,22.95
2022-09-21T13:41:40.269Z,22.99
2022-09-21T13:44:19.983Z,22.51
2022-09-21T13:46:55.231Z,21.98
2022-09-21T13:49:31.732Z,21.76
2022-09-21T13:52:05.313Z,21.40
2022-09-21T13:54:35.766Z,21.16
2022-09-21T13:57:22.244Z,21.11
2022-09-21T14:00:12.631Z,21.02
2022-09-21T14:03:18.532Z,21.06
2022-09-21T14:05:49.884Z,21.11
2022-09-21T14:08:17.339Z,21.09
2022-09-21T14:10:59.325Z,20.89
2022-09-21T14:13:44.452Z,20.68
2022-09-21T14:16:39.594Z,20.48
2022-09-21T14:19:19.127Z,20.43
2022-09-21T14:22:05.570Z,20.43
2022-09-21T14:24:38.786Z,20.51
2022-09-21T14:27:25.410Z,20.54
2022-09-21T14:30:23.343Z,20.33
2022-09-21T14:33:08.501Z,20.19
2022-09-21T14:35:43.687Z,20.18
2022-09-21T14:38:52.275Z,20.27
2022-09-21T14:41:24.002Z,20.35
2022-09-21T14:43:54.377Z,20.45
2022-09-21T14:46:28.287Z,20.44
2022-09-21T14:49:27.745Z,20.26
2022-09-21T14:52:12.967Z,19.99
2022-09-21T14:54:45.025Z,19.86
2022-09-21T14:57:35.533Z,19.83
2022-09-21T15:00:39.813Z,19.83
2022-09-21T15:03:28.850Z,19.78
2022-09-21T15:06:53.951Z,19.84
2022-09-21T15:10:17.803Z,19.80
2022-09-21T15:12:59.134Z,19.77
2022-09-21T15:15:41.458Z,19.67
2022-09-21T15:18:22.656Z,19.60
2022-09-21T15:21:02.405Z,19.58
2022-09-21T15:23:39.434Z,19.64
2022-09-21T15:26:19.343Z,19.59
2022-09-21T15:29:08.798Z,19.54
2022-09-21T15:31:42.057Z,19.47
2022-09-21T15:34:13.262Z,19.47
2022-09-21T15:36:42.856Z,19.44
2022-09-21T15:39:29.332Z,19.46
2022-09-21T15:42:17.942Z,19.53
2022-09-21T15:44:48.890Z,19.63
2022-09-21T15:47:21.982Z,19.67
2022-09-21T15:49:51.081Z,19.71
2022-09-21T15:52:36.289Z,19.61
2022-09-21T15:58:21.136Z,19.49
2022-09-21T16:00:55.321Z,19.33
2022-09-21T16:03:26.605Z,19.23
2022-09-21T16:05:56.177Z,19.12
2022-09-21T16:08:31.687Z,19.01
2022-09-21T16:11:23.350Z,18.93
2022-09-21T16:14:27.221Z,18.92
2022-09-21T16:17:05.568Z,18.90
2022-09-21T16:19:45.060Z,18.90
2022-09-21T16:22:21.781Z,18.82
2022-09-21T16:24:52.010Z,18.77
2022-09-21T16:27:23.063Z,18.83
2022-09-21T16:29:52.016Z,18.85
2022-09-21T16:32:28.671Z,18.85
2022-09-21T16:35:27.968Z,18.78
2022-09-21T16:37:58.121Z,18.80
2022-09-21T16:40:27.022Z,18.81
2022-09-21T16:42:56.061Z,18.79
2022-09-21T16:45:31.409Z,18.83
2022-09-21T16:47:59.764Z,18.87
2022-09-21T16:50:27.247Z,18.89
2022-09-21T16:52:54.757Z,18.83
2022-09-21T16:55:26.918Z,18.76
2022-09-21T16:57:57.333Z,18.75
2022-09-21T17:00:24.910Z,18.77
2022-09-21T17:02:52.506Z,18.71
2022-09-21T17:05:21.050Z,18.64
2022-09-21T17:07:57.579Z,18.55
2022-09-21T17:10:31.003Z,18.49
2022-09-21T17:12:59.299Z,18.45
2022-09-21T17:15:28.552Z,18.41
2022-09-21T17:17:59.029Z,18.38
2022-09-21T17:20:37.117Z,18.33
2022-09-21T17:23:05.357Z,18.27
2022-09-21T17:25:34.247Z,18.24
2022-09-21T17:28:03.951Z,18.22
2022-09-21T17:30:32.074Z,18.19
2022-09-21T17:32:59.602Z,18.16
2022-09-21T17:35:40.421Z,18.21
2022-09-21T17:38:13.933Z,18.23
2022-09-21T17:40:43.129Z,18.14
2022-09-21T17:43:13.553Z,18.07
2022-09-21T17:45:46.989Z,18.03
2022-09-21T17:48:19.820Z,17.96
2022-09-21T17:50:48.943Z,17.89
2022-09-21T17:53:37.135Z,17.85
2022-09-21T17:56:32.890Z,17.74
2022-09-21T17:59:05.578Z,17.69
2022-09-21T18:01:39.721Z,17.67
2022-09-21T18:04:10.824Z,17.64
2022-09-21T18:06:38.671Z,17.60
2022-09-21T18:09:06.752Z,17.54
2022-09-21T18:11:47.402Z,17.50
2022-09-21T18:14:53.068Z,17.46
2022-09-21T18:17:59.415Z,17.42
2022-09-21T18:20:45.503Z,17.44
2022-09-21T18:23:31.459Z,17.42
2022-09-21T18:25:59.727Z,17.39
2022-09-21T18:28:36.343Z,17.36
2022-09-21T18:31:30.101Z,17.31
2022-09-21T18:34:29.311Z,17.30
2022-09-21T18:37:08.302Z,17.25
2022-09-21T18:39:57.614Z,17.17
2022-09-21T18:42:27.992Z,17.07
2022-09-21T18:45:14.298Z,16.98
2022-09-21T18:47:48.556Z,16.89
2022-09-21T18:50:21.318Z,16.81
2022-09-21T18:53:01.196Z,16.77
2022-09-21T18:55:33.167Z,16.77
2022-09-21T18:58:01.533Z,16.77
2022-09-21T19:00:35.119Z,16.79
2022-09-21T19:03:16.927Z,16.73
2022-09-21T19:06:55.119Z,16.54
2022-09-21T19:10:05.437Z,16.41
2022-09-21T19:13:11.309Z,16.30
2022-09-21T19:15:59.644Z,16.30
2022-09-21T19:18:46.447Z,16.34
2022-09-21T19:21:45.925Z,16.24
2022-09-21T19:24:22.723Z,16.18
2022-09-21T19:27:15.367Z,16.17
2022-09-21T19:29:54.993Z,16.18
2022-09-21T19:32:46.374Z,16.23
2022-09-21T19:35:27.019Z,16.19
2022-09-21T19:38:04.072Z,16.16
2022-09-21T19:40:34.451Z,16.19
2022-09-21T19:43:13.008Z,16.18
2022-09-21T19:46:09.322Z,16.15
2022-09-21T19:48:49.541Z,16.18
2022-09-21T19:51:41.795Z,16.20
2022-09-21T19:54:37.220Z,16.23
2022-09-21T19:57:35.028Z,16.20
2022-09-21T20:00:05.720Z,16.20
2022-09-21T20:02:38.613Z,16.26
2022-09-21T20:05:28.109Z,16.35
2022-09-21T20:08:14.178Z,16.30
2022-09-21T20:11:00.831Z,16.31
2022-09-21T20:13:36.766Z,16.36
2022-09-21T20:16:23.273Z,16.41
2022-09-21T20:18:59.145Z,16.42
2022-09-21T20:21:37.861Z,16.42
2022-09-21T20:24:16.456Z,16.39
2022-09-21T20:26:44.563Z,16.38
2022-09-21T20:29:12.905Z,16.39
2022-09-21T20:31:40.706Z,16.40
2022-09-21T20:34:09.388Z,16.38
2022-09-21T20:36:37.198Z,16.38
2022-09-21T20:39:05.058Z,16.35
2022-09-21T20:41:32.971Z,16.32
2022-09-21T20:44:01.817Z,16.34
2022-09-21T20:46:31.387Z,16.30
2022-09-21T20:49:05.377Z,16.29
2022-09-21T20:51:34.156Z,16.34
2022-09-21T20:54:03.150Z,16.36
2022-09-21T20:56:31.241Z,16.38
2022-09-21T20:58:59.406Z,16.40
2022-09-21T21:01:27.236Z,16.39
2022-09-21T21:04:01.730Z,16.37
2022-09-21T21:06:34.158Z,16.39
2022-09-21T21:09:02.264Z,16.36
2022-09-21T21:11:29.979Z,16.38
2022-09-21T21:13:58.403Z,16.38
2022-09-21T21:16:26.663Z,16.39
2022-09-21T21:18:54.511Z,16.39
2022-09-21T21:21:24.746Z,16.40
2022-09-21T21:24:11.265Z,16.45
2022-09-21T21:27:00.866Z,16.45
2022-09-21T21:29:26.823Z,16.45
2022-09-21T21:31:54.549Z,16.47
2022-09-21T21:34:23.263Z,16.50
2022-09-21T21:36:51.331Z,16.54
2022-09-21T21:39:19.152Z,16.59
2022-09-21T21:41:46.784Z,16.61
2022-09-21T21:44:15.870Z,16.59
2022-09-21T21:46:43.777Z,16.58
2022-09-21T21:49:11.433Z,16.57
2022-09-21T21:51:39.073Z,16.59
2022-09-21T21:54:07.421Z,16.60
2022-09-21T21:56:34.949Z,16.60
2022-09-21T21:59:02.497Z,16.60
2022-09-21T22:01:30.605Z,16.60
2022-09-21T22:04:02.570Z,16.62
2022-09-21T22:06:31.713Z,16.66
2022-09-21T22:08:59.696Z,16.67
2022-09-21T22:11:29.702Z,16.65
2022-09-21T22:13:59.342Z,16.60
2022-09-21T22:16:28.938Z,16.59
2022-09-21T22:18:57.349Z,16.60
2022-09-21T22:21:29.604Z,16.59
2022-09-21T22:24:00.390Z,16.58
2022-09-21T22:26:30.741Z,16.55
2022-09-21T22:29:01.290Z,16.52
2022-09-21T22:31:34.104Z,16.51
2022-09-21T22:34:02.193Z,16.51
2022-09-21T22:36:32.285Z,16.49
2022-09-21T22:39:00.186Z,16.48
2022-09-21T22:41:30.586Z,16.47
2022-09-21T22:43:59.490Z,16.46
2022-09-21T22:46:28.906Z,16.45
2022-09-21T22:48:56.757Z,16.46
2022-09-21T22:51:24.650Z,16.41
2022-09-21T22:53:52.462Z,16.38
2022-09-21T22:56:23.192Z,16.38
2022-09-21T22:58:54.269Z,16.36
2022-09-21T23:01:27.502Z,16.35
2022-09-21T23:04:00.610Z,16.33
2022-09-21T23:06:33.500Z,16.31
2022-09-21T23:09:03.755Z,16.29
2022-09-21T23:11:42.001Z,16.30
2022-09-21T23:14:11.933Z,16.32
2022-09-21T23:16:39.672Z,16.28
2022-09-21T23:19:15.690Z,16.28
2022-09-21T23:21:49.542Z,16.29
2022-09-21T23:24:18.499Z,16.32
2022-09-21T23:26:46.801Z,16.33
2022-09-21T23:29:15.441Z,16.33
2022-09-21T23:31:45.700Z,16.33
2022-09-21T23:34:15.104Z,16.31
2022-09-21T23:36:44.020Z,16.31
2022-09-21T23:39:14.517Z,16.32
2022-09-21T23:41:42.157Z,16.32
2022-09-21T23:44:09.966Z,16.33
2022-09-21T23:46:39.287Z,16.35
2022-09-21T23:49:06.949Z,16.33
2022-09-21T23:51:35.225Z,16.34
2022-09-21T23:54:03.711Z,16.32
2022-09-21T23:56:31.925Z,16.25
2022-09-21T23:58:59.622Z,16.25
